Newmarket on Fergus, Ireland
Current Conditions -  °F | °C
As of 8:30 AM on Thursday 27 Nov 2014 (Local Time) from EINN Reporting Station
Broken Clouds Broken Clouds  
Wind Chill: 41°   Ceiling: 4500
Heat Index: 46°   Visibility: 6mi
Dew Point: 43°   Wind: 13mph
Humidity: 87%   Direction: 100°E
Pressure: 29.44"   Gusts: NA
Location:  52.76°N, 8.9°W
Report Text: EINN 270830Z 10011KT 9999 FEW021 BKN045 08/06 Q0997 NOSIG
Loading
Personal Weather Stations






























Interactive Weather Map New forecast layout! Learn more

10-Day Weather Forecast

Advertisements
Track Severe Weather on mobile